sensor_id;sensor_type;location;lat;lon;timestamp;P1;durP1;ratioP1;P2;durP2;ratioP2
11086;SDS011;5597;47.588;9.642;2024-01-15T00:02:05;14.10;;;9.30;;
11086;SDS011;5597;47.588;9.642;2024-01-15T00:04:35;11.30;;;8.43;;
11086;SDS011;5597;47.588;9.642;2024-01-15T00:07:05;9.63;;;8.00;;
11086;SDS011;5597;47.588;9.642;2024-01-15T00:09:31;9.40;;;7.60;;
11086;SDS011;5597;47.588;9.642;2024-01-15T00:11:56;10.17;;;7.07;;
11086;SDS011;5597;47.588;9.642;2024-01-15T00:14:22;10.40;;;7.87;;
11086;SDS011;5597;47.588;9.642;2024-01-15T00:16:48;11.30;;;7.93;;
11086;SDS011;5597;47.588;9.642;2024-01-15T00:19:17;9.53;;;7.27;;
11086;SDS011;5597;47.588;9.642;2024-01-15T00:21:43;10.90;;;7.67;;
11086;SDS011;5597;47.588;9.642;2024-01-15T00:24:09;12.87;;;7.40;;
11086;SDS011;5597;47.588;9.642;2024-01-15T00:26:35;11.43;;;8.00;;
11086;SDS011;5597;47.588;9.642;2024-01-15T00:29:01;13.93;;;8.60;;
11086;SDS011;5597;47.588;9.642;2024-01-15T00:31:28;16.30;;;9.50;;
11086;SDS011;5597;47.588;9.642;2024-01-15T00:33:54;14.00;;;8.80;;
11086;SDS011;5597;47.588;9.642;2024-01-15T00:36:20;15.33;;;9.03;;
11086;SDS011;5597;47.588;9.642;2024-01-15T00:38:46;13.97;;;9.30;;
11086;SDS011;5597;47.588;9.642;2024-01-15T00:41:12;15.33;;;9.03;;
11086;SDS011;5597;47.588;9.642;2024-01-15T00:43:38;14.00;;;8.90;;
11086;SDS011;5597;47.588;9.642;2024-01-15T00:46:04;13.10;;;8.53;;
11086;SDS011;5597;47.588;9.642;2024-01-15T00:48:30;12.63;;;8.20;;
11086;SDS011;5597;47.588;9.642;2024-01-15T00:50:56;12.03;;;8.00;;
11086;SDS011;5597;47.588;9.642;2024-01-15T00:53:22;14.60;;;9.17;;
11086;SDS011;5597;47.588;9.642;2024-01-15T00:55:48;13.33;;;8.73;;
11086;SDS011;5597;47.588;9.642;2024-01-15T00:58:14;14.30;;;8.90;;
11086;SDS011;5597;47.588;9.642;2024-01-15T01:00:40;14.67;;;9.60;;
11086;SDS011;5597;47.588;9.642;2024-01-15T01:03:06;16.00;;;10.00;;
11086;SDS011;5597;47.588;9.642;2024-01-15T01:05:33;16.10;;;10.50;;
11086;SDS011;5597;47.588;9.642;2024-01-15T01:07:59;13.23;;;8.93;;
11086;SDS011;5597;47.588;9.642;2024-01-15T01:10:25;16.00;;;9.43;;
11086;SDS011;5597;47.588;9.642;2024-01-15T01:12:51;15.73;;;8.67;;
11086;SDS011;5597;47.588;9.642;2024-01-15T01:15:17;13.83;;;9.13;;
11086;SDS011;5597;47.588;9.642;2024-01-15T01:17:42;14.03;;;9.40;;
11086;SDS011;5597;47.588;9.642;2024-01-15T01:20:08;15.93;;;9.53;;
11086;SDS011;5597;47.588;9.642;2024-01-15T01:22:35;16.03;;;9.77;;
11086;SDS011;5597;47.588;9.642;2024-01-15T01:25:01;14.70;;;9.83;;
11086;SDS011;5597;47.588;9.642;2024-01-15T01:27:27;13.77;;;8.37;;
11086;SDS011;5597;47.588;9.642;2024-01-15T01:29:53;15.27;;;9.00;;
11086;SDS011;5597;47.588;9.642;2024-01-15T01:32:19;15.80;;;9.30;;
11086;SDS011;5597;47.588;9.642;2024-01-15T01:34:45;14.50;;;8.97;;
11086;SDS011;5597;47.588;9.642;2024-01-15T01:37:11;14.93;;;9.13;;
11086;SDS011;5597;47.588;9.642;2024-01-15T01:39:43;16.00;;;9.53;;
11086;SDS011;5597;47.588;9.642;2024-01-15T01:42:09;14.60;;;9.60;;
11086;SDS011;5597;47.588;9.642;2024-01-15T01:44:35;14.97;;;9.27;;
11086;SDS011;5597;47.588;9.642;2024-01-15T01:47:00;16.67;;;9.73;;
11086;SDS011;5597;47.588;9.642;2024-01-15T01:49:28;15.00;;;9.47;;
11086;SDS011;5597;47.588;9.642;2024-01-15T01:51:57;16.03;;;9.80;;
11086;SDS011;5597;47.588;9.642;2024-01-15T01:54:28;16.13;;;9.50;;
11086;SDS011;5597;47.588;9.642;2024-01-15T01:56:56;15.83;;;9.70;;
11086;SDS011;5597;47.588;9.642;2024-01-15T01:59:23;16.20;;;9.70;;
11086;SDS011;5597;47.588;9.642;2024-01-15T02:01:51;16.27;;;9.57;;
11086;SDS011;5597;47.588;9.642;2024-01-15T02:04:19;14.13;;;9.23;;
11086;SDS011;5597;47.588;9.642;2024-01-15T02:06:46;15.87;;;9.80;;
11086;SDS011;5597;47.588;9.642;2024-01-15T02:09:13;14.57;;;9.70;;
11086;SDS011;5597;47.588;9.642;2024-01-15T02:11:40;13.07;;;8.80;;
11086;SDS011;5597;47.588;9.642;2024-01-15T02:14:07;14.10;;;9.03;;
11086;SDS011;5597;47.588;9.642;2024-01-15T02:16:33;14.57;;;8.57;;
11086;SDS011;5597;47.588;9.642;2024-01-15T02:18:59;11.20;;;7.37;;
11086;SDS011;5597;47.588;9.642;2024-01-15T02:21:25;11.87;;;6.80;;
11086;SDS011;5597;47.588;9.642;2024-01-15T02:23:53;10.00;;;6.47;;
11086;SDS011;5597;47.588;9.642;2024-01-15T02:26:22;8.63;;;5.60;;
11086;SDS011;5597;47.588;9.642;2024-01-15T02:28:48;7.43;;;5.30;;
11086;SDS011;5597;47.588;9.642;2024-01-15T02:31:15;7.77;;;5.30;;
11086;SDS011;5597;47.588;9.642;2024-01-15T02:33:41;7.47;;;4.97;;
11086;SDS011;5597;47.588;9.642;2024-01-15T02:36:08;6.80;;;4.93;;
11086;SDS011;5597;47.588;9.642;2024-01-15T02:38:34;6.30;;;4.47;;
11086;SDS011;5597;47.588;9.642;2024-01-15T02:41:00;6.17;;;4.50;;
11086;SDS011;5597;47.588;9.642;2024-01-15T02:43:25;8.10;;;5.37;;
11086;SDS011;5597;47.588;9.642;2024-01-15T02:45:51;6.37;;;4.53;;
11086;SDS011;5597;47.588;9.642;2024-01-15T02:48:16;6.47;;;4.60;;
11086;SDS011;5597;47.588;9.642;2024-01-15T02:50:42;6.67;;;4.90;;
11086;SDS011;5597;47.588;9.642;2024-01-15T02:53:08;7.43;;;4.93;;
11086;SDS011;5597;47.588;9.642;2024-01-15T02:55:33;7.80;;;5.10;;
11086;SDS011;5597;47.588;9.642;2024-01-15T02:57:59;6.20;;;4.67;;
11086;SDS011;5597;47.588;9.642;2024-01-15T03:00:25;7.77;;;4.83;;
11086;SDS011;5597;47.588;9.642;2024-01-15T03:02:50;8.13;;;5.30;;
11086;SDS011;5597;47.588;9.642;2024-01-15T03:05:16;6.60;;;4.93;;
11086;SDS011;5597;47.588;9.642;2024-01-15T03:07:42;7.27;;;5.00;;
11086;SDS011;5597;47.588;9.642;2024-01-15T03:10:08;6.87;;;4.73;;
11086;SDS011;5597;47.588;9.642;2024-01-15T03:12:34;6.77;;;4.87;;
11086;SDS011;5597;47.588;9.642;2024-01-15T03:15:00;5.80;;;4.20;;
11086;SDS011;5597;47.588;9.642;2024-01-15T03:17:26;7.13;;;4.73;;
11086;SDS011;5597;47.588;9.642;2024-01-15T03:19:51;7.17;;;4.23;;
11086;SDS011;5597;47.588;9.642;2024-01-15T03:22:17;7.57;;;5.20;;
11086;SDS011;5597;47.588;9.642;2024-01-15T03:24:43;7.97;;;4.83;;
11086;SDS011;5597;47.588;9.642;2024-01-15T03:27:09;6.03;;;4.40;;
11086;SDS011;5597;47.588;9.642;2024-01-15T03:29:35;5.63;;;4.17;;
11086;SDS011;5597;47.588;9.642;2024-01-15T03:32:00;5.50;;;4.30;;
11086;SDS011;5597;47.588;9.642;2024-01-15T03:34:26;5.87;;;4.07;;
11086;SDS011;5597;47.588;9.642;2024-01-15T03:36:52;5.30;;;3.63;;
11086;SDS011;5597;47.588;9.642;2024-01-15T03:39:17;5.37;;;3.90;;
11086;SDS011;5597;47.588;9.642;2024-01-15T03:41:43;6.33;;;4.30;;
11086;SDS011;5597;47.588;9.642;2024-01-15T03:44:09;6.50;;;4.00;;
11086;SDS011;5597;47.588;9.642;2024-01-15T03:46:34;5.17;;;3.70;;
11086;SDS011;5597;47.588;9.642;2024-01-15T03:49:00;6.33;;;4.47;;
11086;SDS011;5597;47.588;9.642;2024-01-15T03:51:26;7.93;;;5.03;;
11086;SDS011;5597;47.588;9.642;2024-01-15T03:53:51;7.33;;;5.37;;
11086;SDS011;5597;47.588;9.642;2024-01-15T03:56:17;9.77;;;5.23;;
11086;SDS011;5597;47.588;9.642;2024-01-15T03:58:42;7.23;;;4.63;;
11086;SDS011;5597;47.588;9.642;2024-01-15T04:01:11;6.70;;;4.80;;
11086;SDS011;5597;47.588;9.642;2024-01-15T04:03:37;8.17;;;5.27;;
11086;SDS011;5597;47.588;9.642;2024-01-15T04:06:03;8.87;;;5.40;;
11086;SDS011;5597;47.588;9.642;2024-01-15T04:08:29;8.20;;;5.30;;
11086;SDS011;5597;47.588;9.642;2024-01-15T04:10:55;8.33;;;5.87;;
11086;SDS011;5597;47.588;9.642;2024-01-15T04:13:21;8.77;;;5.87;;
11086;SDS011;5597;47.588;9.642;2024-01-15T04:15:47;9.10;;;5.80;;
11086;SDS011;5597;47.588;9.642;2024-01-15T04:18:12;9.03;;;5.87;;
11086;SDS011;5597;47.588;9.642;2024-01-15T04:20:38;7.47;;;5.27;;
11086;SDS011;5597;47.588;9.642;2024-01-15T04:23:04;8.20;;;5.33;;
11086;SDS011;5597;47.588;9.642;2024-01-15T04:25:30;9.27;;;5.67;;
11086;SDS011;5597;47.588;9.642;2024-01-15T04:27:56;7.70;;;5.10;;
11086;SDS011;5597;47.588;9.642;2024-01-15T04:30:21;7.90;;;5.47;;
11086;SDS011;5597;47.588;9.642;2024-01-15T04:32:47;7.80;;;5.17;;
11086;SDS011;5597;47.588;9.642;2024-01-15T04:35:13;7.07;;;4.60;;
11086;SDS011;5597;47.588;9.642;2024-01-15T04:37:39;6.03;;;4.23;;
11086;SDS011;5597;47.588;9.642;2024-01-15T04:40:05;6.20;;;4.53;;
11086;SDS011;5597;47.588;9.642;2024-01-15T04:42:31;8.90;;;5.27;;
11086;SDS011;5597;47.588;9.642;2024-01-15T04:44:57;9.53;;;5.70;;
11086;SDS011;5597;47.588;9.642;2024-01-15T04:47:23;8.13;;;5.30;;
11086;SDS011;5597;47.588;9.642;2024-01-15T04:49:48;7.43;;;4.97;;
11086;SDS011;5597;47.588;9.642;2024-01-15T04:52:14;9.07;;;6.00;;
11086;SDS011;5597;47.588;9.642;2024-01-15T04:54:40;8.07;;;5.77;;
11086;SDS011;5597;47.588;9.642;2024-01-15T04:57:05;7.53;;;5.50;;
11086;SDS011;5597;47.588;9.642;2024-01-15T04:59:31;7.10;;;5.10;;
11086;SDS011;5597;47.588;9.642;2024-01-15T05:01:57;7.67;;;5.13;;
11086;SDS011;5597;47.588;9.642;2024-01-15T05:04:23;8.00;;;5.03;;
11086;SDS011;5597;47.588;9.642;2024-01-15T05:06:50;7.23;;;5.10;;
11086;SDS011;5597;47.588;9.642;2024-01-15T05:09:16;7.20;;;4.97;;
11086;SDS011;5597;47.588;9.642;2024-01-15T05:11:42;8.53;;;5.40;;
11086;SDS011;5597;47.588;9.642;2024-01-15T05:14:08;8.33;;;5.37;;
11086;SDS011;5597;47.588;9.642;2024-01-15T05:16:34;8.70;;;5.47;;
11086;SDS011;5597;47.588;9.642;2024-01-15T05:19:00;7.93;;;5.37;;
11086;SDS011;5597;47.588;9.642;2024-01-15T05:21:25;7.70;;;5.17;;
11086;SDS011;5597;47.588;9.642;2024-01-15T05:23:51;7.53;;;5.20;;
11086;SDS011;5597;47.588;9.642;2024-01-15T05:26:17;8.37;;;5.87;;
11086;SDS011;5597;47.588;9.642;2024-01-15T05:28:42;9.73;;;6.57;;
11086;SDS011;5597;47.588;9.642;2024-01-15T05:31:08;8.30;;;6.10;;
11086;SDS011;5597;47.588;9.642;2024-01-15T05:33:34;8.87;;;5.90;;
11086;SDS011;5597;47.588;9.642;2024-01-15T05:36:00;8.07;;;5.73;;
11086;SDS011;5597;47.588;9.642;2024-01-15T05:38:26;10.03;;;5.63;;
11086;SDS011;5597;47.588;9.642;2024-01-15T05:40:52;8.53;;;5.97;;
11086;SDS011;5597;47.588;9.642;2024-01-15T05:43:18;9.70;;;6.20;;
11086;SDS011;5597;47.588;9.642;2024-01-15T05:45:44;9.53;;;6.67;;
11086;SDS011;5597;47.588;9.642;2024-01-15T05:48:10;8.50;;;5.50;;
11086;SDS011;5597;47.588;9.642;2024-01-15T05:50:37;8.07;;;5.67;;
11086;SDS011;5597;47.588;9.642;2024-01-15T05:53:03;9.63;;;6.03;;
11086;SDS011;5597;47.588;9.642;2024-01-15T05:55:29;9.90;;;5.80;;
11086;SDS011;5597;47.588;9.642;2024-01-15T05:57:55;10.50;;;6.17;;
11086;SDS011;5597;47.588;9.642;2024-01-15T06:00:20;9.43;;;5.77;;
11086;SDS011;5597;47.588;9.642;2024-01-15T06:02:46;8.00;;;5.30;;
11086;SDS011;5597;47.588;9.642;2024-01-15T06:05:12;9.57;;;5.90;;
11086;SDS011;5597;47.588;9.642;2024-01-15T06:07:38;9.37;;;6.30;;
11086;SDS011;5597;47.588;9.642;2024-01-15T06:10:03;8.33;;;5.37;;
11086;SDS011;5597;47.588;9.642;2024-01-15T06:12:30;9.33;;;5.80;;
11086;SDS011;5597;47.588;9.642;2024-01-15T06:14:57;8.57;;;5.13;;
11086;SDS011;5597;47.588;9.642;2024-01-15T06:17:23;8.50;;;5.37;;
11086;SDS011;5597;47.588;9.642;2024-01-15T06:19:48;8.90;;;5.23;;
11086;SDS011;5597;47.588;9.642;2024-01-15T06:22:14;10.50;;;6.10;;
11086;SDS011;5597;47.588;9.642;2024-01-15T06:24:40;7.83;;;5.23;;
11086;SDS011;5597;47.588;9.642;2024-01-15T06:27:06;8.03;;;5.23;;
11086;SDS011;5597;47.588;9.642;2024-01-15T06:29:31;7.30;;;4.90;;
11086;SDS011;5597;47.588;9.642;2024-01-15T06:31:57;6.33;;;4.07;;
11086;SDS011;5597;47.588;9.642;2024-01-15T06:34:23;7.33;;;4.57;;
11086;SDS011;5597;47.588;9.642;2024-01-15T06:36:48;6.30;;;4.33;;
11086;SDS011;5597;47.588;9.642;2024-01-15T06:39:14;8.03;;;4.47;;
11086;SDS011;5597;47.588;9.642;2024-01-15T06:41:40;7.20;;;4.20;;
11086;SDS011;5597;47.588;9.642;2024-01-15T06:44:09;7.70;;;5.00;;
11086;SDS011;5597;47.588;9.642;2024-01-15T06:46:36;5.93;;;3.97;;
11086;SDS011;5597;47.588;9.642;2024-01-15T06:49:01;8.53;;;4.70;;
11086;SDS011;5597;47.588;9.642;2024-01-15T06:51:27;6.90;;;4.00;;
11086;SDS011;5597;47.588;9.642;2024-01-15T06:53:54;5.50;;;4.00;;
11086;SDS011;5597;47.588;9.642;2024-01-15T06:56:19;7.23;;;4.33;;
11086;SDS011;5597;47.588;9.642;2024-01-15T06:58:45;5.90;;;3.93;;
11086;SDS011;5597;47.588;9.642;2024-01-15T07:01:10;5.37;;;3.80;;
11086;SDS011;5597;47.588;9.642;2024-01-15T07:03:36;7.10;;;3.97;;
11086;SDS011;5597;47.588;9.642;2024-01-15T07:06:02;6.20;;;3.87;;
11086;SDS011;5597;47.588;9.642;2024-01-15T07:08:28;5.40;;;3.53;;
11086;SDS011;5597;47.588;9.642;2024-01-15T07:10:53;6.73;;;4.30;;
11086;SDS011;5597;47.588;9.642;2024-01-15T07:13:19;8.17;;;4.87;;
11086;SDS011;5597;47.588;9.642;2024-01-15T07:15:45;6.50;;;4.03;;
11086;SDS011;5597;47.588;9.642;2024-01-15T07:18:10;6.70;;;4.10;;
11086;SDS011;5597;47.588;9.642;2024-01-15T07:20:36;6.53;;;4.23;;
11086;SDS011;5597;47.588;9.642;2024-01-15T07:23:02;6.67;;;4.27;;
11086;SDS011;5597;47.588;9.642;2024-01-15T07:25:28;5.77;;;3.60;;
11086;SDS011;5597;47.588;9.642;2024-01-15T07:27:53;6.83;;;4.00;;
11086;SDS011;5597;47.588;9.642;2024-01-15T07:30:19;6.70;;;4.30;;
11086;SDS011;5597;47.588;9.642;2024-01-15T07:32:46;5.93;;;3.73;;
11086;SDS011;5597;47.588;9.642;2024-01-15T07:35:13;6.77;;;4.10;;
11086;SDS011;5597;47.588;9.642;2024-01-15T07:37:40;5.87;;;4.10;;
11086;SDS011;5597;47.588;9.642;2024-01-15T07:40:06;4.70;;;3.27;;
11086;SDS011;5597;47.588;9.642;2024-01-15T07:42:33;6.50;;;3.90;;
11086;SDS011;5597;47.588;9.642;2024-01-15T07:44:59;5.53;;;3.90;;
11086;SDS011;5597;47.588;9.642;2024-01-15T07:47:25;6.03;;;3.50;;
11086;SDS011;5597;47.588;9.642;2024-01-15T07:49:52;5.83;;;3.77;;
11086;SDS011;5597;47.588;9.642;2024-01-15T07:52:18;6.57;;;4.33;;
11086;SDS011;5597;47.588;9.642;2024-01-15T07:54:43;5.83;;;3.90;;
11086;SDS011;5597;47.588;9.642;2024-01-15T07:57:10;8.80;;;4.33;;
11086;SDS011;5597;47.588;9.642;2024-01-15T07:59:35;5.67;;;3.63;;
11086;SDS011;5597;47.588;9.642;2024-01-15T08:02:01;6.97;;;4.10;;
11086;SDS011;5597;47.588;9.642;2024-01-15T08:04:27;6.47;;;4.13;;
11086;SDS011;5597;47.588;9.642;2024-01-15T08:06:52;6.80;;;4.40;;
11086;SDS011;5597;47.588;9.642;2024-01-15T08:09:18;7.60;;;4.27;;
11086;SDS011;5597;47.588;9.642;2024-01-15T08:11:43;6.43;;;4.50;;
11086;SDS011;5597;47.588;9.642;2024-01-15T08:14:09;7.93;;;4.40;;
11086;SDS011;5597;47.588;9.642;2024-01-15T08:16:38;5.20;;;3.90;;
11086;SDS011;5597;47.588;9.642;2024-01-15T08:19:04;7.00;;;4.47;;
11086;SDS011;5597;47.588;9.642;2024-01-15T08:21:30;7.17;;;4.70;;
11086;SDS011;5597;47.588;9.642;2024-01-15T08:23:57;7.70;;;4.57;;
11086;SDS011;5597;47.588;9.642;2024-01-15T08:26:29;6.93;;;4.43;;
11086;SDS011;5597;47.588;9.642;2024-01-15T08:28:55;10.03;;;4.97;;
11086;SDS011;5597;47.588;9.642;2024-01-15T08:31:21;6.87;;;4.37;;
11086;SDS011;5597;47.588;9.642;2024-01-15T08:33:46;7.40;;;4.87;;
11086;SDS011;5597;47.588;9.642;2024-01-15T08:36:12;7.23;;;4.90;;
11086;SDS011;5597;47.588;9.642;2024-01-15T08:38:37;7.57;;;4.87;;
11086;SDS011;5597;47.588;9.642;2024-01-15T08:41:04;9.23;;;5.40;;
11086;SDS011;5597;47.588;9.642;2024-01-15T08:43:29;7.63;;;4.97;;
11086;SDS011;5597;47.588;9.642;2024-01-15T08:45:58;7.53;;;4.93;;
11086;SDS011;5597;47.588;9.642;2024-01-15T08:48:24;9.50;;;5.97;;
11086;SDS011;5597;47.588;9.642;2024-01-15T08:50:52;9.03;;;5.20;;
11086;SDS011;5597;47.588;9.642;2024-01-15T08:53:18;7.83;;;4.90;;
11086;SDS011;5597;47.588;9.642;2024-01-15T08:55:44;9.53;;;5.50;;
11086;SDS011;5597;47.588;9.642;2024-01-15T08:58:09;8.50;;;5.30;;
11086;SDS011;5597;47.588;9.642;2024-01-15T09:00:35;7.80;;;5.00;;
11086;SDS011;5597;47.588;9.642;2024-01-15T09:03:01;9.30;;;5.50;;
11086;SDS011;5597;47.588;9.642;2024-01-15T09:05:27;10.27;;;5.87;;
11086;SDS011;5597;47.588;9.642;2024-01-15T09:07:52;7.37;;;5.07;;
11086;SDS011;5597;47.588;9.642;2024-01-15T09:10:19;8.60;;;5.27;;
11086;SDS011;5597;47.588;9.642;2024-01-15T09:12:45;9.07;;;5.33;;
11086;SDS011;5597;47.588;9.642;2024-01-15T09:15:10;9.83;;;5.40;;
11086;SDS011;5597;47.588;9.642;2024-01-15T09:17:36;8.17;;;5.00;;
11086;SDS011;5597;47.588;9.642;2024-01-15T09:20:01;6.53;;;4.37;;
11086;SDS011;5597;47.588;9.642;2024-01-15T09:22:29;7.93;;;4.87;;
11086;SDS011;5597;47.588;9.642;2024-01-15T09:24:55;8.10;;;4.90;;
11086;SDS011;5597;47.588;9.642;2024-01-15T09:27:20;6.43;;;4.47;;
11086;SDS011;5597;47.588;9.642;2024-01-15T09:29:46;8.60;;;4.70;;
11086;SDS011;5597;47.588;9.642;2024-01-15T09:32:12;7.03;;;4.63;;
11086;SDS011;5597;47.588;9.642;2024-01-15T09:34:38;7.37;;;5.00;;
11086;SDS011;5597;47.588;9.642;2024-01-15T09:37:04;11.10;;;6.30;;
11086;SDS011;5597;47.588;9.642;2024-01-15T09:39:30;12.53;;;7.87;;
11086;SDS011;5597;47.588;9.642;2024-01-15T09:41:57;11.73;;;6.90;;
11086;SDS011;5597;47.588;9.642;2024-01-15T09:44:23;11.83;;;5.80;;
11086;SDS011;5597;47.588;9.642;2024-01-15T09:46:48;9.00;;;5.53;;
11086;SDS011;5597;47.588;9.642;2024-01-15T09:49:15;8.50;;;5.00;;
11086;SDS011;5597;47.588;9.642;2024-01-15T09:51:41;9.03;;;5.80;;
11086;SDS011;5597;47.588;9.642;2024-01-15T09:54:08;11.67;;;7.50;;
11086;SDS011;5597;47.588;9.642;2024-01-15T09:56:34;12.60;;;6.90;;
11086;SDS011;5597;47.588;9.642;2024-01-15T09:59:00;10.43;;;6.37;;
11086;SDS011;5597;47.588;9.642;2024-01-15T10:01:26;8.07;;;5.30;;
11086;SDS011;5597;47.588;9.642;2024-01-15T10:03:52;8.40;;;5.17;;
11086;SDS011;5597;47.588;9.642;2024-01-15T10:06:19;7.80;;;5.20;;
11086;SDS011;5597;47.588;9.642;2024-01-15T10:08:47;7.17;;;4.87;;
11086;SDS011;5597;47.588;9.642;2024-01-15T10:11:14;8.60;;;5.63;;
11086;SDS011;5597;47.588;9.642;2024-01-15T10:13:41;6.83;;;4.90;;
11086;SDS011;5597;47.588;9.642;2024-01-15T10:16:10;7.07;;;4.73;;
11086;SDS011;5597;47.588;9.642;2024-01-15T10:18:36;9.47;;;5.33;;
11086;SDS011;5597;47.588;9.642;2024-01-15T10:21:04;9.27;;;5.40;;
11086;SDS011;5597;47.588;9.642;2024-01-15T10:23:34;7.47;;;5.00;;
11086;SDS011;5597;47.588;9.642;2024-01-15T10:26:01;8.57;;;5.33;;
11086;SDS011;5597;47.588;9.642;2024-01-15T10:28:27;6.73;;;4.93;;
11086;SDS011;5597;47.588;9.642;2024-01-15T10:30:56;8.00;;;4.73;;
11086;SDS011;5597;47.588;9.642;2024-01-15T10:33:26;7.83;;;4.93;;
11086;SDS011;5597;47.588;9.642;2024-01-15T10:35:56;6.93;;;4.40;;
11086;SDS011;5597;47.588;9.642;2024-01-15T10:38:22;6.77;;;4.20;;
11086;SDS011;5597;47.588;9.642;2024-01-15T10:40:52;7.70;;;4.90;;
11086;SDS011;5597;47.588;9.642;2024-01-15T10:43:18;8.30;;;4.50;;
11086;SDS011;5597;47.588;9.642;2024-01-15T10:45:45;7.23;;;4.67;;
11086;SDS011;5597;47.588;9.642;2024-01-15T10:48:11;6.57;;;4.53;;
11086;SDS011;5597;47.588;9.642;2024-01-15T10:50:37;7.60;;;4.87;;
11086;SDS011;5597;47.588;9.642;2024-01-15T10:53:03;7.23;;;4.60;;
11086;SDS011;5597;47.588;9.642;2024-01-15T10:55:30;6.70;;;4.30;;
11086;SDS011;5597;47.588;9.642;2024-01-15T10:58:00;5.90;;;4.30;;
11086;SDS011;5597;47.588;9.642;2024-01-15T11:00:28;6.07;;;3.90;;
11086;SDS011;5597;47.588;9.642;2024-01-15T11:02:55;6.60;;;4.40;;
11086;SDS011;5597;47.588;9.642;2024-01-15T11:05:21;7.33;;;4.13;;
11086;SDS011;5597;47.588;9.642;2024-01-15T11:07:48;6.37;;;4.40;;
11086;SDS011;5597;47.588;9.642;2024-01-15T11:10:59;8.27;;;4.77;;
11086;SDS011;5597;47.588;9.642;2024-01-15T11:13:03;5.63;;;3.70;;
11086;SDS011;5597;47.588;9.642;2024-01-15T11:15:30;5.43;;;4.00;;
11086;SDS011;5597;47.588;9.642;2024-01-15T11:17:59;6.53;;;4.20;;
11086;SDS011;5597;47.588;9.642;2024-01-15T11:20:26;5.60;;;4.10;;
11086;SDS011;5597;47.588;9.642;2024-01-15T11:22:52;4.87;;;3.23;;
11086;SDS011;5597;47.588;9.642;2024-01-15T11:25:18;5.13;;;3.47;;
11086;SDS011;5597;47.588;9.642;2024-01-15T11:27:48;5.70;;;3.80;;
11086;SDS011;5597;47.588;9.642;2024-01-15T11:30:17;4.93;;;3.57;;
11086;SDS011;5597;47.588;9.642;2024-01-15T11:32:45;5.77;;;3.97;;
11086;SDS011;5597;47.588;9.642;2024-01-15T11:35:12;5.73;;;3.70;;
11086;SDS011;5597;47.588;9.642;2024-01-15T11:40:19;5.93;;;3.17;;
11086;SDS011;5597;47.588;9.642;2024-01-15T11:42:46;4.10;;;2.97;;
11086;SDS011;5597;47.588;9.642;2024-01-15T11:45:12;5.03;;;3.50;;
11086;SDS011;5597;47.588;9.642;2024-01-15T11:47:53;5.30;;;3.20;;
11086;SDS011;5597;47.588;9.642;2024-01-15T11:50:44;4.73;;;3.30;;
11086;SDS011;5597;47.588;9.642;2024-01-15T11:53:32;4.43;;;3.23;;
11086;SDS011;5597;47.588;9.642;2024-01-15T11:56:02;5.87;;;3.67;;
11086;SDS011;5597;47.588;9.642;2024-01-15T11:58:31;4.53;;;3.27;;
11086;SDS011;5597;47.588;9.642;2024-01-15T12:00:57;4.03;;;3.23;;
11086;SDS011;5597;47.588;9.642;2024-01-15T12:03:23;4.37;;;3.17;;
11086;SDS011;5597;47.588;9.642;2024-01-15T12:05:49;4.27;;;3.00;;
11086;SDS011;5597;47.588;9.642;2024-01-15T12:08:21;4.70;;;3.50;;
11086;SDS011;5597;47.588;9.642;2024-01-15T12:10:51;4.20;;;3.23;;
11086;SDS011;5597;47.588;9.642;2024-01-15T12:13:16;3.70;;;2.80;;
11086;SDS011;5597;47.588;9.642;2024-01-15T12:15:43;3.17;;;2.33;;
11086;SDS011;5597;47.588;9.642;2024-01-15T12:18:09;2.93;;;2.50;;
11086;SDS011;5597;47.588;9.642;2024-01-15T12:20:36;3.27;;;2.37;;
11086;SDS011;5597;47.588;9.642;2024-01-15T12:23:02;2.80;;;2.10;;
11086;SDS011;5597;47.588;9.642;2024-01-15T12:25:29;2.90;;;2.33;;
11086;SDS011;5597;47.588;9.642;2024-01-15T12:27:56;2.67;;;2.30;;
11086;SDS011;5597;47.588;9.642;2024-01-15T12:30:22;4.53;;;3.00;;
11086;SDS011;5597;47.588;9.642;2024-01-15T12:32:48;2.77;;;2.40;;
11086;SDS011;5597;47.588;9.642;2024-01-15T12:35:14;2.27;;;2.00;;
11086;SDS011;5597;47.588;9.642;2024-01-15T12:37:40;1.93;;;1.73;;
11086;SDS011;5597;47.588;9.642;2024-01-15T12:40:07;2.07;;;1.67;;
11086;SDS011;5597;47.588;9.642;2024-01-15T12:42:35;2.73;;;1.60;;
11086;SDS011;5597;47.588;9.642;2024-01-15T12:45:07;3.20;;;1.93;;
11086;SDS011;5597;47.588;9.642;2024-01-15T12:47:34;2.10;;;1.80;;
11086;SDS011;5597;47.588;9.642;2024-01-15T12:50:00;2.37;;;1.90;;
11086;SDS011;5597;47.588;9.642;2024-01-15T12:52:29;1.70;;;1.60;;
11086;SDS011;5597;47.588;9.642;2024-01-15T12:54:55;2.53;;;2.00;;
11086;SDS011;5597;47.588;9.642;2024-01-15T12:57:21;2.67;;;2.20;;
11086;SDS011;5597;47.588;9.642;2024-01-15T12:59:46;3.10;;;2.33;;
11086;SDS011;5597;47.588;9.642;2024-01-15T13:02:15;2.80;;;1.87;;
11086;SDS011;5597;47.588;9.642;2024-01-15T13:04:41;2.80;;;2.30;;
11086;SDS011;5597;47.588;9.642;2024-01-15T13:07:07;4.13;;;2.30;;
11086;SDS011;5597;47.588;9.642;2024-01-15T13:09:33;3.17;;;2.40;;
11086;SDS011;5597;47.588;9.642;2024-01-15T13:12:00;2.70;;;2.17;;
11086;SDS011;5597;47.588;9.642;2024-01-15T13:14:26;3.13;;;2.30;;
11086;SDS011;5597;47.588;9.642;2024-01-15T13:16:52;3.87;;;2.53;;
11086;SDS011;5597;47.588;9.642;2024-01-15T13:19:19;2.67;;;2.03;;
11086;SDS011;5597;47.588;9.642;2024-01-15T13:21:46;3.57;;;2.50;;
11086;SDS011;5597;47.588;9.642;2024-01-15T13:24:11;4.30;;;2.50;;
11086;SDS011;5597;47.588;9.642;2024-01-15T13:26:37;3.17;;;2.67;;
11086;SDS011;5597;47.588;9.642;2024-01-15T13:29:03;2.97;;;2.60;;
11086;SDS011;5597;47.588;9.642;2024-01-15T13:31:29;5.23;;;3.10;;
11086;SDS011;5597;47.588;9.642;2024-01-15T13:33:55;6.00;;;4.40;;
11086;SDS011;5597;47.588;9.642;2024-01-15T13:36:21;5.27;;;4.03;;
11086;SDS011;5597;47.588;9.642;2024-01-15T13:38:48;3.80;;;2.70;;
11086;SDS011;5597;47.588;9.642;2024-01-15T13:41:14;3.27;;;2.93;;
11086;SDS011;5597;47.588;9.642;2024-01-15T13:43:40;4.33;;;3.00;;
11086;SDS011;5597;47.588;9.642;2024-01-15T13:46:05;3.60;;;2.50;;
11086;SDS011;5597;47.588;9.642;2024-01-15T13:48:31;4.33;;;3.00;;
11086;SDS011;5597;47.588;9.642;2024-01-15T13:50:57;3.90;;;2.80;;
11086;SDS011;5597;47.588;9.642;2024-01-15T13:53:24;2.83;;;2.40;;
11086;SDS011;5597;47.588;9.642;2024-01-15T13:55:50;3.50;;;2.50;;
11086;SDS011;5597;47.588;9.642;2024-01-15T13:58:15;3.53;;;2.40;;
11086;SDS011;5597;47.588;9.642;2024-01-15T14:00:43;3.50;;;2.60;;
11086;SDS011;5597;47.588;9.642;2024-01-15T14:03:09;3.87;;;2.77;;
11086;SDS011;5597;47.588;9.642;2024-01-15T14:05:34;4.00;;;2.90;;
11086;SDS011;5597;47.588;9.642;2024-01-15T14:08:00;3.43;;;2.83;;
11086;SDS011;5597;47.588;9.642;2024-01-15T14:10:25;4.60;;;2.73;;
11086;SDS011;5597;47.588;9.642;2024-01-15T14:12:51;5.03;;;2.80;;
11086;SDS011;5597;47.588;9.642;2024-01-15T14:15:16;4.63;;;3.00;;
11086;SDS011;5597;47.588;9.642;2024-01-15T14:17:44;4.53;;;2.60;;
11086;SDS011;5597;47.588;9.642;2024-01-15T14:20:09;3.53;;;2.53;;
11086;SDS011;5597;47.588;9.642;2024-01-15T14:22:35;3.37;;;2.73;;
11086;SDS011;5597;47.588;9.642;2024-01-15T14:25:01;2.97;;;2.43;;
11086;SDS011;5597;47.588;9.642;2024-01-15T14:27:26;3.27;;;2.67;;
11086;SDS011;5597;47.588;9.642;2024-01-15T14:29:52;4.07;;;2.70;;
11086;SDS011;5597;47.588;9.642;2024-01-15T14:32:17;5.33;;;2.87;;
11086;SDS011;5597;47.588;9.642;2024-01-15T14:34:43;4.20;;;3.23;;
11086;SDS011;5597;47.588;9.642;2024-01-15T14:37:09;3.30;;;2.73;;
11086;SDS011;5597;47.588;9.642;2024-01-15T14:39:34;3.87;;;2.83;;
11086;SDS011;5597;47.588;9.642;2024-01-15T14:42:00;3.33;;;2.63;;
11086;SDS011;5597;47.588;9.642;2024-01-15T14:44:26;10.53;;;5.73;;
11086;SDS011;5597;47.588;9.642;2024-01-15T14:46:53;6.20;;;4.53;;
11086;SDS011;5597;47.588;9.642;2024-01-15T14:49:19;5.47;;;3.70;;
11086;SDS011;5597;47.588;9.642;2024-01-15T14:51:45;4.87;;;3.53;;
11086;SDS011;5597;47.588;9.642;2024-01-15T14:54:10;4.27;;;3.10;;
11086;SDS011;5597;47.588;9.642;2024-01-15T14:56:36;4.50;;;3.10;;